JAF17J EBOS-LGKO
Flight info
| Callsign | JAF17J |
|---|---|
| Flight time | 3h 8m |
| Altitude | 37000 |
| Route | FERDI UL607 REMBA M624 DIK M150 GEBDA Y173 PABLA Z721 UTABA DCT GEDSO DCT SABAD DCT VRANA DCT AKIKA DCT TALAS UN130 MES UL609 LARKI |
| Aircraft | A21N/M-SDE3FGHIRWY/LB1 |
Departure
| Time | 2026-04-30 08:41 |
|---|---|
| Airport | Ostend-Bruges International Airport (EBOS) |
Arrival
| Time | 2026-04-30 11:50 |
|---|---|
| Airport | Kos International Airport "Ippokratis" (LGKO) |
| Time | Latitude | Longitude | Altitude | Speed | Heading |
|---|---|---|---|---|---|
| 2026-04-30 08:21 | 51.20353 | 2.87057 | 9 ft | 0 kts | 347° |
| 2026-04-30 08:25 | 51.20352 | 2.87057 | 9 ft | 0 kts | 347° |
| 2026-04-30 08:31 | 51.20348 | 2.87059 | 9 ft | 2 kts | 348° |
| 2026-04-30 08:32 | 51.20334 | 2.87064 | 9 ft | 2 kts | 347° |
| 2026-04-30 08:32 | 51.20319 | 2.87069 | 9 ft | 2 kts | 347° |
| 2026-04-30 08:32 | 51.20305 | 2.87074 | 9 ft | 2 kts | 347° |
| 2026-04-30 08:32 | 51.20290 | 2.87082 | 9 ft | 2 kts | 323° |
| 2026-04-30 08:33 | 51.20279 | 2.87099 | 9 ft | 2 kts | 301° |
| 2026-04-30 08:33 | 51.20274 | 2.87121 | 9 ft | 2 kts | 277° |
| 2026-04-30 08:33 | 51.20275 | 2.87145 | 9 ft | 2 kts | 253° |
| 2026-04-30 08:33 | 51.20278 | 2.87161 | 9 ft | 0 kts | 256° |
| 2026-04-30 08:34 | 51.20279 | 2.87165 | 9 ft | 0 kts | 257° |
| 2026-04-30 08:34 | 51.20279 | 2.87164 | 9 ft | 0 kts | 257° |
| 2026-04-30 08:35 | 51.20278 | 2.87163 | 9 ft | 0 kts | 257° |
| 2026-04-30 08:35 | 51.20277 | 2.87154 | 9 ft | 1 kts | 257° |
| 2026-04-30 08:36 | 51.20274 | 2.87128 | 9 ft | 3 kts | 257° |
| 2026-04-30 08:36 | 51.20266 | 2.87079 | 9 ft | 5 kts | 257° |
| 2026-04-30 08:36 | 51.20256 | 2.87002 | 9 ft | 8 kts | 257° |
| 2026-04-30 08:36 | 51.20240 | 2.86895 | 9 ft | 11 kts | 257° |
| 2026-04-30 08:37 | 51.20220 | 2.86762 | 9 ft | 13 kts | 252° |
| 2026-04-30 08:37 | 51.20145 | 2.86695 | 9 ft | 13 kts | 189° |
| 2026-04-30 08:37 | 51.20054 | 2.86667 | 9 ft | 13 kts | 210° |
| 2026-04-30 08:37 | 51.20015 | 2.86533 | 9 ft | 14 kts | 256° |
| 2026-04-30 08:38 | 51.19990 | 2.86370 | 9 ft | 15 kts | 256° |
| 2026-04-30 08:38 | 51.19964 | 2.86192 | 9 ft | 17 kts | 257° |
| 2026-04-30 08:38 | 51.19936 | 2.86005 | 9 ft | 17 kts | 256° |
| 2026-04-30 08:38 | 51.19905 | 2.85806 | 9 ft | 19 kts | 257° |
| 2026-04-30 08:39 | 51.19874 | 2.85598 | 9 ft | 19 kts | 257° |
| 2026-04-30 08:39 | 51.19843 | 2.85395 | 9 ft | 15 kts | 256° |
| 2026-04-30 08:39 | 51.19774 | 2.85268 | 9 ft | 15 kts | 205° |
| 2026-04-30 08:39 | 51.19703 | 2.85268 | 9 ft | 1 kts | 168° |
| 2026-04-30 08:40 | 51.19692 | 2.85271 | 9 ft | 2 kts | 167° |
| 2026-04-30 08:40 | 51.19673 | 2.85289 | 9 ft | 4 kts | 132° |
| 2026-04-30 08:40 | 51.19667 | 2.85334 | 9 ft | 4 kts | 85° |
| 2026-04-30 08:40 | 51.19670 | 2.85363 | 9 ft | 0 kts | 77° |
| 2026-04-30 08:41 | 51.19685 | 2.85463 | 9 ft | 40 kts | 76° |
| 2026-04-30 08:41 | 51.19824 | 2.86387 | 9 ft | 128 kts | 76° |
| 2026-04-30 08:41 | 51.20081 | 2.88060 | 415 ft | 166 kts | 78° |
| 2026-04-30 08:41 | 51.20347 | 2.89715 | 1538 ft | 159 kts | 80° |
| 2026-04-30 08:42 | 51.20590 | 2.91319 | 2445 ft | 150 kts | 82° |
| 2026-04-30 08:42 | 51.20829 | 2.93003 | 2860 ft | 164 kts | 82° |
| 2026-04-30 08:42 | 51.21083 | 2.94847 | 3255 ft | 181 kts | 82° |
| 2026-04-30 08:42 | 51.21383 | 2.96907 | 3587 ft | 203 kts | 81° |
| 2026-04-30 08:43 | 51.21724 | 2.99193 | 4094 ft | 217 kts | 83° |
| 2026-04-30 08:43 | 51.21661 | 3.01571 | 4833 ft | 217 kts | 108° |
| 2026-04-30 08:43 | 51.20917 | 3.03706 | 5333 ft | 234 kts | 126° |
| 2026-04-30 08:43 | 51.19896 | 3.05755 | 5976 ft | 242 kts | 126° |
| 2026-04-30 08:44 | 51.18848 | 3.07841 | 6753 ft | 245 kts | 127° |
| 2026-04-30 08:44 | 51.17774 | 3.09962 | 7476 ft | 250 kts | 127° |
| 2026-04-30 08:44 | 51.16703 | 3.12136 | 8195 ft | 254 kts | 126° |
| 2026-04-30 08:44 | 51.15604 | 3.14377 | 8903 ft | 258 kts | 126° |
| 2026-04-30 08:45 | 51.14498 | 3.16619 | 9588 ft | 263 kts | 126° |
| 2026-04-30 08:45 | 51.13355 | 3.18926 | 10293 ft | 267 kts | 126° |
| 2026-04-30 08:45 | 51.12212 | 3.21270 | 10856 ft | 275 kts | 126° |
| 2026-04-30 08:45 | 51.11008 | 3.23746 | 11166 ft | 292 kts | 126° |
| 2026-04-30 08:46 | 51.09735 | 3.26352 | 11468 ft | 309 kts | 126° |
| 2026-04-30 08:46 | 51.08378 | 3.29123 | 11755 ft | 325 kts | 126° |
| 2026-04-30 08:46 | 51.06952 | 3.32027 | 12115 ft | 337 kts | 126° |
| 2026-04-30 08:46 | 51.05503 | 3.34970 | 12692 ft | 342 kts | 126° |
| 2026-04-30 08:47 | 51.04047 | 3.37922 | 13316 ft | 345 kts | 126° |
| 2026-04-30 08:47 | 51.02556 | 3.40946 | 13928 ft | 348 kts | 126° |
| 2026-04-30 08:47 | 51.01060 | 3.43975 | 14509 ft | 351 kts | 126° |
| 2026-04-30 08:47 | 50.99537 | 3.47055 | 15090 ft | 354 kts | 126° |
| 2026-04-30 08:48 | 50.98029 | 3.50099 | 15669 ft | 357 kts | 126° |
| 2026-04-30 08:48 | 50.96481 | 3.53221 | 16233 ft | 359 kts | 126° |
| 2026-04-30 08:48 | 50.94944 | 3.56318 | 16766 ft | 363 kts | 126° |
| 2026-04-30 08:48 | 50.93376 | 3.59479 | 17306 ft | 365 kts | 125° |
| 2026-04-30 08:49 | 50.91964 | 3.62808 | 17841 ft | 366 kts | 118° |
| 2026-04-30 08:49 | 50.90842 | 3.66411 | 18351 ft | 367 kts | 112° |
| 2026-04-30 08:49 | 50.89991 | 3.70273 | 18845 ft | 370 kts | 107° |
| 2026-04-30 08:49 | 50.89225 | 3.74217 | 19346 ft | 373 kts | 106° |
| 2026-04-30 08:50 | 50.88458 | 3.78228 | 19820 ft | 376 kts | 106° |
| 2026-04-30 08:50 | 50.87707 | 3.82146 | 20282 ft | 379 kts | 106° |
| 2026-04-30 08:50 | 50.86930 | 3.86177 | 20771 ft | 381 kts | 106° |
| 2026-04-30 08:50 | 50.86164 | 3.90140 | 21227 ft | 383 kts | 105° |
| 2026-04-30 08:51 | 50.85380 | 3.94178 | 21664 ft | 386 kts | 105° |
| 2026-04-30 08:51 | 50.84581 | 3.98285 | 22081 ft | 390 kts | 105° |
| 2026-04-30 08:51 | 50.83785 | 4.02358 | 22495 ft | 393 kts | 105° |
| 2026-04-30 08:51 | 50.82975 | 4.06495 | 22902 ft | 396 kts | 105° |
| 2026-04-30 08:52 | 50.82167 | 4.10612 | 23315 ft | 398 kts | 105° |
| 2026-04-30 08:52 | 50.81343 | 4.14808 | 23717 ft | 401 kts | 105° |
| 2026-04-30 08:52 | 50.80519 | 4.18998 | 24106 ft | 403 kts | 105° |
| 2026-04-30 08:52 | 50.79686 | 4.23217 | 24519 ft | 405 kts | 105° |
| 2026-04-30 08:53 | 50.78840 | 4.27489 | 24947 ft | 406 kts | 105° |
| 2026-04-30 08:53 | 50.78002 | 4.31709 | 25333 ft | 408 kts | 105° |
| 2026-04-30 08:53 | 50.77150 | 4.35989 | 25719 ft | 410 kts | 105° |
| 2026-04-30 08:53 | 50.76294 | 4.40287 | 26097 ft | 412 kts | 105° |
| 2026-04-30 08:54 | 50.75429 | 4.44611 | 26463 ft | 415 kts | 105° |
| 2026-04-30 08:54 | 50.74557 | 4.48966 | 26806 ft | 417 kts | 105° |
| 2026-04-30 08:54 | 50.73690 | 4.53281 | 27130 ft | 419 kts | 105° |
| 2026-04-30 08:54 | 50.72797 | 4.57718 | 27452 ft | 422 kts | 105° |
| 2026-04-30 08:55 | 50.71922 | 4.62104 | 27797 ft | 423 kts | 105° |
| 2026-04-30 08:55 | 50.71066 | 4.66522 | 28135 ft | 425 kts | 105° |
| 2026-04-30 08:55 | 50.70191 | 4.71065 | 28458 ft | 427 kts | 105° |
| 2026-04-30 08:55 | 50.69314 | 4.75603 | 28814 ft | 427 kts | 105° |
| 2026-04-30 08:56 | 50.68453 | 4.80034 | 29268 ft | 426 kts | 105° |
| 2026-04-30 08:56 | 50.67508 | 4.84429 | 29719 ft | 425 kts | 110° |
| 2026-04-30 08:56 | 50.66265 | 4.88643 | 30160 ft | 425 kts | 116° |
| 2026-04-30 08:56 | 50.64733 | 4.92619 | 30593 ft | 426 kts | 122° |
| 2026-04-30 08:57 | 50.62939 | 4.96295 | 30980 ft | 427 kts | 128° |
| 2026-04-30 08:57 | 50.60881 | 4.99718 | 31376 ft | 427 kts | 131° |
| 2026-04-30 08:57 | 50.58780 | 5.02995 | 31766 ft | 427 kts | 132° |
| 2026-04-30 08:57 | 50.56686 | 5.06225 | 32129 ft | 426 kts | 132° |
| 2026-04-30 08:58 | 50.54561 | 5.09495 | 32487 ft | 425 kts | 132° |
| 2026-04-30 08:58 | 50.52457 | 5.12732 | 32864 ft | 424 kts | 132° |
| 2026-04-30 08:58 | 50.50355 | 5.15967 | 33245 ft | 423 kts | 132° |
| 2026-04-30 08:58 | 50.48255 | 5.19198 | 33620 ft | 421 kts | 132° |
| 2026-04-30 08:59 | 50.46172 | 5.22397 | 33989 ft | 419 kts | 132° |
| 2026-04-30 08:59 | 50.44123 | 5.25546 | 34339 ft | 418 kts | 132° |
| 2026-04-30 08:59 | 50.42036 | 5.28745 | 34671 ft | 417 kts | 132° |
| 2026-04-30 08:59 | 50.39982 | 5.31893 | 34963 ft | 416 kts | 132° |
| 2026-04-30 09:00 | 50.37908 | 5.35067 | 35211 ft | 416 kts | 132° |
| 2026-04-30 09:00 | 50.35841 | 5.38226 | 35429 ft | 416 kts | 132° |
| 2026-04-30 09:00 | 50.33770 | 5.41387 | 35605 ft | 417 kts | 132° |
| 2026-04-30 09:00 | 50.31695 | 5.44550 | 35760 ft | 418 kts | 132° |
| 2026-04-30 09:01 | 50.29624 | 5.47702 | 35909 ft | 419 kts | 132° |
| 2026-04-30 09:01 | 50.27529 | 5.50888 | 36060 ft | 420 kts | 132° |
| 2026-04-30 09:01 | 50.25443 | 5.54053 | 36217 ft | 421 kts | 131° |
| 2026-04-30 09:01 | 50.23335 | 5.57250 | 36361 ft | 422 kts | 132° |
| 2026-04-30 09:02 | 50.19141 | 5.63600 | 36619 ft | 424 kts | 132° |
| 2026-04-30 09:02 | 50.17015 | 5.66811 | 36754 ft | 424 kts | 133° |
| 2026-04-30 09:02 | 50.14879 | 5.70032 | 36913 ft | 425 kts | 133° |
| 2026-04-30 09:03 | 50.12716 | 5.73293 | 37059 ft | 426 kts | 133° |
| 2026-04-30 09:03 | 50.10580 | 5.76501 | 37190 ft | 427 kts | 133° |
| 2026-04-30 09:03 | 50.06306 | 5.82921 | 37291 ft | 429 kts | 133° |
| 2026-04-30 09:04 | 50.01995 | 5.89380 | 37300 ft | 430 kts | 133° |
| 2026-04-30 09:04 | 49.97688 | 5.95811 | 37303 ft | 430 kts | 133° |
| 2026-04-30 09:05 | 49.93386 | 6.02222 | 37314 ft | 430 kts | 133° |
| 2026-04-30 09:05 | 49.89207 | 6.08913 | 37313 ft | 428 kts | 128° |
| 2026-04-30 09:06 | 49.85529 | 6.16193 | 37314 ft | 426 kts | 122° |
| 2026-04-30 09:06 | 49.82404 | 6.23961 | 37319 ft | 424 kts | 116° |
| 2026-04-30 09:07 | 49.79660 | 6.32011 | 37316 ft | 424 kts | 114° |
| 2026-04-30 09:07 | 49.76929 | 6.40039 | 37310 ft | 424 kts | 114° |
| 2026-04-30 09:08 | 49.74182 | 6.48084 | 37312 ft | 424 kts | 114° |
| 2026-04-30 09:08 | 49.71442 | 6.56093 | 37316 ft | 424 kts | 114° |
| 2026-04-30 09:09 | 49.68673 | 6.64171 | 37318 ft | 425 kts | 114° |
| 2026-04-30 09:09 | 49.65866 | 6.72330 | 37320 ft | 425 kts | 115° |
| 2026-04-30 09:10 | 49.63093 | 6.80363 | 37309 ft | 425 kts | 115° |
| 2026-04-30 09:10 | 49.60309 | 6.88399 | 37299 ft | 425 kts | 115° |
| 2026-04-30 09:11 | 49.57515 | 6.96435 | 37295 ft | 426 kts | 114° |
| 2026-04-30 09:11 | 49.54714 | 7.04475 | 37307 ft | 426 kts | 114° |
| 2026-04-30 09:12 | 49.51910 | 7.12498 | 37312 ft | 426 kts | 114° |
| 2026-04-30 09:12 | 49.49098 | 7.20510 | 37314 ft | 426 kts | 114° |
| 2026-04-30 09:13 | 49.46280 | 7.28519 | 37306 ft | 427 kts | 114° |
| 2026-04-30 09:13 | 49.43460 | 7.36509 | 37319 ft | 426 kts | 114° |
| 2026-04-30 09:14 | 49.40637 | 7.44483 | 37317 ft | 427 kts | 114° |
| 2026-04-30 09:14 | 49.37788 | 7.52503 | 37320 ft | 427 kts | 114° |
| 2026-04-30 09:15 | 49.34955 | 7.60454 | 37317 ft | 427 kts | 114° |
| 2026-04-30 09:15 | 49.32075 | 7.68515 | 37321 ft | 427 kts | 115° |
| 2026-04-30 09:16 | 49.29205 | 7.76516 | 37325 ft | 427 kts | 114° |
| 2026-04-30 09:16 | 49.26331 | 7.84509 | 37319 ft | 428 kts | 115° |
| 2026-04-30 09:17 | 49.23471 | 7.92440 | 37316 ft | 428 kts | 114° |
| 2026-04-30 09:17 | 49.20599 | 8.00379 | 37323 ft | 428 kts | 114° |
| 2026-04-30 09:18 | 49.17714 | 8.08320 | 37325 ft | 428 kts | 114° |
| 2026-04-30 09:18 | 49.14790 | 8.16219 | 37328 ft | 430 kts | 118° |
| 2026-04-30 09:19 | 49.10843 | 8.23168 | 37328 ft | 441 kts | 134° |
| 2026-04-30 09:19 | 49.05654 | 8.28285 | 37330 ft | 452 kts | 150° |
| 2026-04-30 09:20 | 48.99568 | 8.31099 | 37328 ft | 460 kts | 164° |
| 2026-04-30 09:20 | 48.93221 | 8.32415 | 37323 ft | 463 kts | 169° |
| 2026-04-30 09:21 | 48.86733 | 8.33727 | 37307 ft | 460 kts | 163° |
| 2026-04-30 09:21 | 48.80788 | 8.37068 | 37306 ft | 449 kts | 146° |
| 2026-04-30 09:22 | 48.75821 | 8.42555 | 37299 ft | 441 kts | 130° |
| 2026-04-30 09:22 | 48.71961 | 8.49643 | 37273 ft | 435 kts | 121° |
| 2026-04-30 09:23 | 48.68462 | 8.57103 | 37271 ft | 436 kts | 120° |
| 2026-04-30 09:23 | 48.64954 | 8.64539 | 37268 ft | 436 kts | 120° |
| 2026-04-30 09:24 | 48.61338 | 8.72143 | 37272 ft | 438 kts | 121° |
| 2026-04-30 09:24 | 48.57800 | 8.79545 | 37275 ft | 438 kts | 121° |
| 2026-04-30 09:25 | 48.54218 | 8.87020 | 37284 ft | 439 kts | 121° |
| 2026-04-30 09:25 | 48.50635 | 8.94473 | 37287 ft | 439 kts | 121° |
| 2026-04-30 09:26 | 48.47060 | 9.01891 | 37294 ft | 439 kts | 121° |
| 2026-04-30 09:26 | 48.43480 | 9.09294 | 37287 ft | 439 kts | 121° |
| 2026-04-30 09:27 | 48.39867 | 9.16746 | 37283 ft | 440 kts | 121° |
| 2026-04-30 09:27 | 48.36251 | 9.24185 | 37277 ft | 440 kts | 121° |
| 2026-04-30 09:28 | 48.32648 | 9.31576 | 37273 ft | 441 kts | 121° |
| 2026-04-30 09:28 | 48.29010 | 9.39023 | 37266 ft | 441 kts | 121° |
| 2026-04-30 09:29 | 48.25386 | 9.46413 | 37264 ft | 441 kts | 121° |
| 2026-04-30 09:29 | 48.21853 | 9.53918 | 37280 ft | 440 kts | 119° |
| 2026-04-30 09:30 | 48.18366 | 9.61406 | 37280 ft | 440 kts | 119° |
| 2026-04-30 09:30 | 48.14821 | 9.68972 | 37278 ft | 441 kts | 120° |
| 2026-04-30 09:31 | 48.11288 | 9.76483 | 37269 ft | 442 kts | 120° |
| 2026-04-30 09:31 | 48.07760 | 9.83955 | 37275 ft | 442 kts | 120° |
| 2026-04-30 09:32 | 48.04201 | 9.91471 | 37286 ft | 442 kts | 120° |
| 2026-04-30 09:32 | 48.00650 | 9.98947 | 37276 ft | 443 kts | 120° |
| 2026-04-30 09:33 | 47.97094 | 10.06413 | 37284 ft | 442 kts | 120° |
| 2026-04-30 09:33 | 47.93536 | 10.13865 | 37272 ft | 443 kts | 120° |
| 2026-04-30 09:34 | 47.89957 | 10.21341 | 37271 ft | 443 kts | 120° |
| 2026-04-30 09:34 | 47.86337 | 10.28885 | 37273 ft | 446 kts | 120° |
| 2026-04-30 09:35 | 47.82719 | 10.36398 | 37269 ft | 446 kts | 120° |
| 2026-04-30 09:35 | 47.79128 | 10.43831 | 37268 ft | 446 kts | 120° |
| 2026-04-30 09:36 | 47.75517 | 10.51290 | 37260 ft | 447 kts | 120° |
| 2026-04-30 09:36 | 47.71880 | 10.58787 | 37265 ft | 447 kts | 120° |
| 2026-04-30 09:37 | 47.68226 | 10.66291 | 37262 ft | 449 kts | 121° |
| 2026-04-30 09:37 | 47.64550 | 10.73827 | 37276 ft | 450 kts | 121° |
| 2026-04-30 09:38 | 47.60890 | 10.81300 | 37271 ft | 450 kts | 121° |
| 2026-04-30 09:38 | 47.57210 | 10.88801 | 37278 ft | 451 kts | 121° |
| 2026-04-30 09:39 | 47.53540 | 10.96260 | 37283 ft | 452 kts | 121° |
| 2026-04-30 09:39 | 47.49845 | 11.03746 | 37300 ft | 453 kts | 121° |
| 2026-04-30 09:40 | 47.46128 | 11.11256 | 37279 ft | 452 kts | 121° |
| 2026-04-30 09:40 | 47.42435 | 11.18698 | 37282 ft | 453 kts | 121° |
| 2026-04-30 09:41 | 47.38708 | 11.26192 | 37304 ft | 453 kts | 121° |
| 2026-04-30 09:41 | 47.34971 | 11.33684 | 37275 ft | 454 kts | 121° |
| 2026-04-30 09:42 | 47.31240 | 11.41142 | 37264 ft | 455 kts | 121° |
| 2026-04-30 09:42 | 47.27465 | 11.48665 | 37272 ft | 455 kts | 121° |
| 2026-04-30 09:43 | 47.23712 | 11.56132 | 37268 ft | 456 kts | 121° |
| 2026-04-30 09:43 | 47.19947 | 11.63595 | 37284 ft | 456 kts | 121° |
| 2026-04-30 09:44 | 47.16123 | 11.71158 | 37267 ft | 458 kts | 122° |
| 2026-04-30 09:44 | 47.12310 | 11.78679 | 37235 ft | 458 kts | 122° |
| 2026-04-30 09:45 | 47.08525 | 11.86121 | 37228 ft | 460 kts | 122° |
| 2026-04-30 09:45 | 47.04681 | 11.93652 | 37208 ft | 460 kts | 122° |
| 2026-04-30 09:46 | 47.00861 | 12.01112 | 37225 ft | 461 kts | 122° |
| 2026-04-30 09:46 | 46.96995 | 12.08638 | 37226 ft | 461 kts | 122° |
| 2026-04-30 09:47 | 46.93139 | 12.16129 | 37217 ft | 461 kts | 122° |
| 2026-04-30 09:47 | 46.89283 | 12.23597 | 37208 ft | 463 kts | 122° |
| 2026-04-30 09:48 | 46.85344 | 12.31205 | 37233 ft | 463 kts | 122° |
| 2026-04-30 09:48 | 46.81443 | 12.38723 | 37245 ft | 464 kts | 123° |
| 2026-04-30 09:49 | 46.77560 | 12.46179 | 37250 ft | 465 kts | 123° |
| 2026-04-30 09:49 | 46.73652 | 12.53666 | 37256 ft | 466 kts | 122° |
| 2026-04-30 09:50 | 46.69722 | 12.61182 | 37251 ft | 466 kts | 123° |
| 2026-04-30 09:50 | 46.65735 | 12.68783 | 37224 ft | 468 kts | 123° |
| 2026-04-30 09:51 | 46.61811 | 12.76247 | 37211 ft | 468 kts | 123° |
| 2026-04-30 09:51 | 46.57859 | 12.83740 | 37218 ft | 467 kts | 123° |
| 2026-04-30 09:52 | 46.53888 | 12.91251 | 37234 ft | 468 kts | 124° |
| 2026-04-30 09:52 | 46.49907 | 12.98739 | 37252 ft | 470 kts | 124° |
| 2026-04-30 09:53 | 46.45921 | 13.06223 | 37265 ft | 470 kts | 124° |
| 2026-04-30 09:53 | 46.41940 | 13.13684 | 37260 ft | 471 kts | 124° |
| 2026-04-30 09:54 | 46.37926 | 13.21191 | 37271 ft | 471 kts | 124° |
| 2026-04-30 09:54 | 46.33913 | 13.28676 | 37260 ft | 472 kts | 124° |
| 2026-04-30 09:55 | 46.29906 | 13.36125 | 37276 ft | 472 kts | 124° |
| 2026-04-30 09:55 | 46.25883 | 13.43585 | 37288 ft | 473 kts | 124° |
| 2026-04-30 09:56 | 46.21833 | 13.51078 | 37292 ft | 473 kts | 124° |
| 2026-04-30 09:56 | 46.17814 | 13.58500 | 37298 ft | 473 kts | 124° |
| 2026-04-30 09:57 | 46.13750 | 13.65990 | 37287 ft | 474 kts | 125° |
| 2026-04-30 09:57 | 46.09643 | 13.73541 | 37283 ft | 474 kts | 126° |
| 2026-04-30 09:58 | 46.05589 | 13.80960 | 37259 ft | 474 kts | 126° |
| 2026-04-30 09:58 | 46.01520 | 13.88397 | 37263 ft | 474 kts | 126° |
| 2026-04-30 09:59 | 45.93357 | 14.03246 | 37288 ft | 475 kts | 126° |
| 2026-04-30 10:00 | 45.87176 | 14.14442 | 37317 ft | 475 kts | 126° |
| 2026-04-30 10:01 | 45.81027 | 14.25520 | 37287 ft | 476 kts | 126° |
| 2026-04-30 10:02 | 45.74844 | 14.36618 | 37269 ft | 476 kts | 126° |
| 2026-04-30 10:02 | 45.70701 | 14.44029 | 37265 ft | 477 kts | 126° |
| 2026-04-30 10:03 | 45.66587 | 14.51369 | 37248 ft | 477 kts | 126° |
| 2026-04-30 10:03 | 45.62439 | 14.58748 | 37243 ft | 478 kts | 126° |
| 2026-04-30 10:04 | 45.58265 | 14.66161 | 37251 ft | 478 kts | 127° |
| 2026-04-30 10:04 | 45.54077 | 14.73577 | 37263 ft | 479 kts | 127° |
| 2026-04-30 10:05 | 45.49919 | 14.80913 | 37265 ft | 480 kts | 127° |
| 2026-04-30 10:05 | 45.45668 | 14.88284 | 37283 ft | 481 kts | 129° |
| 2026-04-30 10:06 | 45.41304 | 14.95427 | 37268 ft | 481 kts | 130° |
| 2026-04-30 10:06 | 45.36900 | 15.02592 | 37260 ft | 482 kts | 129° |
| 2026-04-30 10:07 | 45.32494 | 15.09752 | 37269 ft | 482 kts | 129° |
| 2026-04-30 10:07 | 45.28097 | 15.16886 | 37268 ft | 482 kts | 130° |
| 2026-04-30 10:08 | 45.23688 | 15.24016 | 37284 ft | 483 kts | 130° |
| 2026-04-30 10:08 | 45.19264 | 15.31146 | 37298 ft | 482 kts | 130° |
| 2026-04-30 10:09 | 45.14836 | 15.38270 | 37293 ft | 483 kts | 130° |
| 2026-04-30 10:09 | 45.10415 | 15.45364 | 37292 ft | 483 kts | 130° |
| 2026-04-30 10:10 | 45.05976 | 15.52468 | 37289 ft | 483 kts | 130° |
| 2026-04-30 10:10 | 45.01546 | 15.59532 | 37290 ft | 482 kts | 130° |
| 2026-04-30 10:11 | 44.97086 | 15.66635 | 37289 ft | 483 kts | 131° |
| 2026-04-30 10:11 | 44.92597 | 15.73768 | 37276 ft | 484 kts | 131° |
| 2026-04-30 10:12 | 44.88100 | 15.80890 | 37273 ft | 484 kts | 131° |
| 2026-04-30 10:12 | 44.83614 | 15.87981 | 37266 ft | 485 kts | 131° |
| 2026-04-30 10:13 | 44.79149 | 15.95027 | 37261 ft | 485 kts | 131° |
| 2026-04-30 10:13 | 44.74660 | 16.02085 | 37270 ft | 484 kts | 131° |
| 2026-04-30 10:14 | 44.70168 | 16.09131 | 37258 ft | 485 kts | 131° |
| 2026-04-30 10:14 | 44.63414 | 16.19686 | 37221 ft | 487 kts | 131° |
| 2026-04-30 10:15 | 44.58875 | 16.26749 | 37202 ft | 487 kts | 131° |
| 2026-04-30 10:15 | 44.54345 | 16.33780 | 37201 ft | 487 kts | 132° |
| 2026-04-30 10:16 | 44.49812 | 16.40808 | 37205 ft | 487 kts | 132° |
| 2026-04-30 10:17 | 44.43015 | 16.51319 | 37219 ft | 487 kts | 131° |
| 2026-04-30 10:17 | 44.36191 | 16.61829 | 37178 ft | 489 kts | 132° |
| 2026-04-30 10:18 | 44.31570 | 16.68927 | 37196 ft | 490 kts | 133° |
| 2026-04-30 10:19 | 44.24721 | 16.79407 | 37200 ft | 489 kts | 133° |
| 2026-04-30 10:19 | 44.20141 | 16.86393 | 37196 ft | 490 kts | 133° |
| 2026-04-30 10:20 | 44.15550 | 16.93374 | 37205 ft | 491 kts | 133° |
| 2026-04-30 10:20 | 44.08635 | 17.03864 | 37205 ft | 491 kts | 133° |
| 2026-04-30 10:21 | 44.04003 | 17.10873 | 37192 ft | 491 kts | 133° |
| 2026-04-30 10:21 | 43.99398 | 17.17818 | 37165 ft | 491 kts | 133° |
| 2026-04-30 10:22 | 43.94772 | 17.24778 | 37186 ft | 491 kts | 133° |
| 2026-04-30 10:22 | 43.90160 | 17.31696 | 37188 ft | 492 kts | 133° |
| 2026-04-30 10:23 | 43.85515 | 17.38650 | 37212 ft | 493 kts | 134° |
| 2026-04-30 10:23 | 43.80851 | 17.45615 | 37219 ft | 493 kts | 133° |
| 2026-04-30 10:24 | 43.76196 | 17.52572 | 37200 ft | 494 kts | 132° |
| 2026-04-30 10:24 | 43.71834 | 17.59927 | 37206 ft | 494 kts | 129° |
| 2026-04-30 10:25 | 43.67576 | 17.67404 | 37207 ft | 494 kts | 129° |
| 2026-04-30 10:25 | 43.63328 | 17.74838 | 37220 ft | 494 kts | 129° |
| 2026-04-30 10:26 | 43.59068 | 17.82253 | 37233 ft | 494 kts | 129° |
| 2026-04-30 10:26 | 43.54796 | 17.89674 | 37214 ft | 495 kts | 129° |
| 2026-04-30 10:27 | 43.50522 | 17.97085 | 37181 ft | 495 kts | 129° |
| 2026-04-30 10:27 | 43.46252 | 18.04462 | 37187 ft | 496 kts | 129° |
| 2026-04-30 10:28 | 43.41960 | 18.11859 | 37183 ft | 496 kts | 130° |
| 2026-04-30 10:28 | 43.37685 | 18.19200 | 37191 ft | 497 kts | 130° |
| 2026-04-30 10:29 | 43.33355 | 18.26620 | 37186 ft | 497 kts | 130° |
| 2026-04-30 10:29 | 43.29031 | 18.34016 | 37163 ft | 497 kts | 130° |
| 2026-04-30 10:30 | 43.24712 | 18.41383 | 37168 ft | 497 kts | 130° |
| 2026-04-30 10:30 | 43.20390 | 18.48736 | 37161 ft | 499 kts | 130° |
| 2026-04-30 10:31 | 43.16024 | 18.56149 | 37154 ft | 499 kts | 130° |
| 2026-04-30 10:31 | 43.11667 | 18.63523 | 37135 ft | 499 kts | 130° |
| 2026-04-30 10:32 | 43.07303 | 18.70896 | 37154 ft | 498 kts | 131° |
| 2026-04-30 10:32 | 43.02929 | 18.78258 | 37165 ft | 498 kts | 131° |
| 2026-04-30 10:33 | 42.98580 | 18.85567 | 37165 ft | 499 kts | 131° |
| 2026-04-30 10:33 | 42.94210 | 18.92890 | 37197 ft | 499 kts | 131° |
| 2026-04-30 10:34 | 42.89831 | 19.00207 | 37198 ft | 499 kts | 132° |
| 2026-04-30 10:34 | 42.85452 | 19.07508 | 37197 ft | 499 kts | 131° |
| 2026-04-30 10:35 | 42.81063 | 19.14810 | 37187 ft | 499 kts | 132° |
| 2026-04-30 10:35 | 42.76672 | 19.22095 | 37152 ft | 499 kts | 132° |
| 2026-04-30 10:36 | 42.72303 | 19.29331 | 37127 ft | 499 kts | 132° |
| 2026-04-30 10:36 | 42.67896 | 19.36604 | 37144 ft | 500 kts | 132° |
| 2026-04-30 10:37 | 42.63499 | 19.43850 | 37160 ft | 500 kts | 132° |
| 2026-04-30 10:37 | 42.59067 | 19.51133 | 37159 ft | 498 kts | 132° |
| 2026-04-30 10:38 | 42.54649 | 19.58368 | 37155 ft | 499 kts | 132° |
| 2026-04-30 10:38 | 42.50245 | 19.65602 | 37134 ft | 499 kts | 133° |
| 2026-04-30 10:39 | 42.45821 | 19.72886 | 37121 ft | 498 kts | 133° |
| 2026-04-30 10:39 | 42.41422 | 19.80108 | 37117 ft | 499 kts | 133° |
| 2026-04-30 10:40 | 42.37026 | 19.87309 | 37120 ft | 498 kts | 133° |
| 2026-04-30 10:40 | 42.32606 | 19.94529 | 37146 ft | 498 kts | 133° |
| 2026-04-30 10:41 | 42.28205 | 20.01696 | 37176 ft | 498 kts | 133° |
| 2026-04-30 10:41 | 42.23769 | 20.08901 | 37193 ft | 498 kts | 133° |
| 2026-04-30 10:42 | 42.19358 | 20.16051 | 37178 ft | 498 kts | 133° |
| 2026-04-30 10:42 | 42.14939 | 20.23205 | 37188 ft | 498 kts | 133° |
| 2026-04-30 10:43 | 42.10496 | 20.30373 | 37161 ft | 499 kts | 133° |
| 2026-04-30 10:43 | 42.06065 | 20.37503 | 37127 ft | 499 kts | 133° |
| 2026-04-30 10:44 | 42.01629 | 20.44633 | 37117 ft | 499 kts | 133° |
| 2026-04-30 10:44 | 41.97171 | 20.51777 | 37109 ft | 499 kts | 133° |
| 2026-04-30 10:45 | 41.92744 | 20.58845 | 37111 ft | 498 kts | 133° |
| 2026-04-30 10:45 | 41.88240 | 20.66024 | 37089 ft | 498 kts | 134° |
| 2026-04-30 10:46 | 41.83784 | 20.73121 | 37068 ft | 496 kts | 134° |
| 2026-04-30 10:46 | 41.79329 | 20.80181 | 37113 ft | 497 kts | 134° |
| 2026-04-30 10:47 | 41.74882 | 20.87214 | 37094 ft | 496 kts | 134° |
| 2026-04-30 10:47 | 41.70410 | 20.94282 | 37133 ft | 497 kts | 134° |
| 2026-04-30 10:48 | 41.65970 | 21.01278 | 37119 ft | 496 kts | 134° |
| 2026-04-30 10:48 | 41.61490 | 21.08318 | 37120 ft | 495 kts | 134° |
| 2026-04-30 10:49 | 41.57053 | 21.15280 | 37101 ft | 495 kts | 134° |
| 2026-04-30 10:49 | 41.52580 | 21.22283 | 37096 ft | 495 kts | 134° |
| 2026-04-30 10:50 | 41.48145 | 21.29204 | 37093 ft | 494 kts | 134° |
| 2026-04-30 10:50 | 41.43664 | 21.36181 | 37093 ft | 494 kts | 134° |
| 2026-04-30 10:51 | 41.39219 | 21.43087 | 37085 ft | 494 kts | 134° |
| 2026-04-30 10:51 | 41.34750 | 21.50012 | 37081 ft | 493 kts | 134° |
| 2026-04-30 10:52 | 41.30281 | 21.56930 | 37074 ft | 493 kts | 134° |
| 2026-04-30 10:52 | 41.25830 | 21.63801 | 37082 ft | 493 kts | 134° |
| 2026-04-30 10:53 | 41.21320 | 21.70744 | 37069 ft | 492 kts | 134° |
| 2026-04-30 10:53 | 41.16866 | 21.77586 | 37061 ft | 491 kts | 134° |
| 2026-04-30 10:54 | 41.12417 | 21.84403 | 37055 ft | 491 kts | 135° |
| 2026-04-30 10:54 | 41.07963 | 21.91254 | 37062 ft | 492 kts | 133° |
| 2026-04-30 10:55 | 41.03789 | 21.98441 | 37061 ft | 494 kts | 130° |
| 2026-04-30 10:55 | 40.99673 | 22.05707 | 37070 ft | 494 kts | 130° |
| 2026-04-30 10:56 | 40.95547 | 22.12962 | 37061 ft | 491 kts | 130° |
| 2026-04-30 10:56 | 40.91450 | 22.20137 | 37053 ft | 492 kts | 130° |
| 2026-04-30 10:57 | 40.87297 | 22.27383 | 37054 ft | 492 kts | 130° |
| 2026-04-30 10:57 | 40.83178 | 22.34555 | 37055 ft | 491 kts | 130° |
| 2026-04-30 10:58 | 40.79052 | 22.41727 | 37042 ft | 491 kts | 130° |
| 2026-04-30 10:58 | 40.74922 | 22.48885 | 37036 ft | 490 kts | 130° |
| 2026-04-30 10:59 | 40.70803 | 22.56006 | 37029 ft | 489 kts | 130° |
| 2026-04-30 10:59 | 40.66676 | 22.63121 | 37033 ft | 490 kts | 130° |
| 2026-04-30 11:00 | 40.62537 | 22.70248 | 37033 ft | 489 kts | 131° |
| 2026-04-30 11:00 | 40.58410 | 22.77338 | 37032 ft | 489 kts | 131° |
| 2026-04-30 11:01 | 40.54285 | 22.84405 | 37037 ft | 488 kts | 131° |
| 2026-04-30 11:01 | 40.50171 | 22.91440 | 37039 ft | 488 kts | 131° |
| 2026-04-30 11:02 | 40.46003 | 22.98457 | 37038 ft | 486 kts | 133° |
| 2026-04-30 11:02 | 40.41489 | 23.04953 | 37039 ft | 484 kts | 137° |
| 2026-04-30 11:03 | 40.36844 | 23.11344 | 37039 ft | 483 kts | 137° |
| 2026-04-30 11:04 | 40.29935 | 23.20859 | 37040 ft | 483 kts | 137° |
| 2026-04-30 11:04 | 40.25288 | 23.27248 | 37034 ft | 483 kts | 137° |
| 2026-04-30 11:05 | 40.20674 | 23.33578 | 37032 ft | 482 kts | 136° |
| 2026-04-30 11:05 | 40.16058 | 23.39902 | 37034 ft | 482 kts | 136° |
| 2026-04-30 11:06 | 40.11430 | 23.46210 | 37034 ft | 482 kts | 136° |
| 2026-04-30 11:06 | 40.06823 | 23.52513 | 37040 ft | 482 kts | 136° |
| 2026-04-30 11:07 | 40.02204 | 23.58826 | 37039 ft | 482 kts | 136° |
| 2026-04-30 11:07 | 39.97577 | 23.65120 | 37038 ft | 481 kts | 137° |
| 2026-04-30 11:08 | 39.92960 | 23.71379 | 37041 ft | 481 kts | 137° |
| 2026-04-30 11:08 | 39.88299 | 23.77680 | 37046 ft | 481 kts | 137° |
| 2026-04-30 11:09 | 39.83674 | 23.83920 | 37048 ft | 481 kts | 137° |
| 2026-04-30 11:09 | 39.79047 | 23.90150 | 37045 ft | 481 kts | 137° |
| 2026-04-30 11:10 | 39.74403 | 23.96391 | 37044 ft | 481 kts | 137° |
| 2026-04-30 11:10 | 39.69774 | 24.02602 | 37048 ft | 480 kts | 137° |
| 2026-04-30 11:11 | 39.65126 | 24.08822 | 37051 ft | 480 kts | 137° |
| 2026-04-30 11:11 | 39.60494 | 24.15008 | 37051 ft | 480 kts | 137° |
| 2026-04-30 11:12 | 39.55854 | 24.21196 | 37051 ft | 480 kts | 137° |
| 2026-04-30 11:12 | 39.51205 | 24.27384 | 37048 ft | 480 kts | 137° |
| 2026-04-30 11:13 | 39.46531 | 24.33590 | 37048 ft | 480 kts | 137° |
| 2026-04-30 11:13 | 39.41903 | 24.39716 | 37051 ft | 480 kts | 137° |
| 2026-04-30 11:14 | 39.37215 | 24.45913 | 37043 ft | 480 kts | 137° |
| 2026-04-30 11:14 | 39.32594 | 24.52024 | 37038 ft | 479 kts | 136° |
| 2026-04-30 11:15 | 39.27970 | 24.58213 | 37035 ft | 479 kts | 136° |
| 2026-04-30 11:15 | 39.23342 | 24.64405 | 37035 ft | 479 kts | 136° |
| 2026-04-30 11:16 | 39.18710 | 24.70578 | 37033 ft | 479 kts | 137° |
| 2026-04-30 11:16 | 39.14084 | 24.76728 | 37035 ft | 479 kts | 137° |
| 2026-04-30 11:17 | 39.09445 | 24.82873 | 37035 ft | 479 kts | 137° |
| 2026-04-30 11:17 | 39.04755 | 24.88966 | 37032 ft | 479 kts | 137° |
| 2026-04-30 11:18 | 39.00087 | 24.95006 | 37028 ft | 478 kts | 137° |
| 2026-04-30 11:18 | 38.93081 | 25.04065 | 37034 ft | 479 kts | 137° |
| 2026-04-30 11:19 | 38.88368 | 25.10147 | 37025 ft | 479 kts | 137° |
| 2026-04-30 11:19 | 38.83668 | 25.16198 | 37023 ft | 480 kts | 137° |
| 2026-04-30 11:20 | 38.78968 | 25.22236 | 37020 ft | 479 kts | 137° |
| 2026-04-30 11:20 | 38.74301 | 25.28217 | 37023 ft | 478 kts | 137° |
| 2026-04-30 11:21 | 38.69581 | 25.34258 | 37030 ft | 479 kts | 137° |
| 2026-04-30 11:21 | 38.64896 | 25.40246 | 37023 ft | 479 kts | 137° |
| 2026-04-30 11:22 | 38.60186 | 25.46251 | 37022 ft | 479 kts | 137° |
| 2026-04-30 11:22 | 38.55489 | 25.52222 | 37029 ft | 479 kts | 137° |
| 2026-04-30 11:23 | 38.50748 | 25.58241 | 37027 ft | 480 kts | 137° |
| 2026-04-30 11:24 | 38.43654 | 25.67227 | 37018 ft | 479 kts | 138° |
| 2026-04-30 11:24 | 38.38910 | 25.73217 | 37025 ft | 479 kts | 138° |
| 2026-04-30 11:25 | 38.31839 | 25.82157 | 37025 ft | 480 kts | 139° |
| 2026-04-30 11:26 | 38.22216 | 25.93891 | 37031 ft | 478 kts | 142° |
| 2026-04-30 11:26 | 38.17223 | 25.99425 | 37030 ft | 478 kts | 142° |
| 2026-04-30 11:27 | 38.12199 | 26.04979 | 36789 ft | 479 kts | 142° |
| 2026-04-30 11:27 | 38.09714 | 26.07727 | 36460 ft | 477 kts | 141° |
| 2026-04-30 11:27 | 38.07233 | 26.10470 | 36087 ft | 473 kts | 141° |
| 2026-04-30 11:28 | 38.02310 | 26.15902 | 35073 ft | 470 kts | 142° |
| 2026-04-30 11:28 | 37.99851 | 26.18610 | 34460 ft | 472 kts | 142° |
| 2026-04-30 11:28 | 37.97366 | 26.21341 | 33745 ft | 472 kts | 142° |
| 2026-04-30 11:29 | 37.94884 | 26.24064 | 33040 ft | 472 kts | 142° |
| 2026-04-30 11:29 | 37.92407 | 26.26779 | 32314 ft | 472 kts | 142° |
| 2026-04-30 11:29 | 37.87452 | 26.32203 | 30751 ft | 474 kts | 141° |
| 2026-04-30 11:30 | 37.82469 | 26.37638 | 29127 ft | 474 kts | 141° |
| 2026-04-30 11:30 | 37.80011 | 26.40316 | 28322 ft | 474 kts | 141° |
| 2026-04-30 11:30 | 37.77515 | 26.43035 | 27503 ft | 473 kts | 141° |
| 2026-04-30 11:31 | 37.75055 | 26.45718 | 26975 ft | 466 kts | 141° |
| 2026-04-30 11:31 | 37.72613 | 26.48381 | 26428 ft | 460 kts | 141° |
| 2026-04-30 11:31 | 37.70196 | 26.51010 | 25880 ft | 455 kts | 141° |
| 2026-04-30 11:31 | 37.67831 | 26.53577 | 25342 ft | 451 kts | 141° |
| 2026-04-30 11:32 | 37.65452 | 26.56165 | 24794 ft | 446 kts | 141° |
| 2026-04-30 11:32 | 37.63119 | 26.58699 | 24259 ft | 442 kts | 141° |
| 2026-04-30 11:32 | 37.60830 | 26.61185 | 23740 ft | 437 kts | 141° |
| 2026-04-30 11:33 | 37.56244 | 26.66161 | 22671 ft | 429 kts | 141° |
| 2026-04-30 11:33 | 37.54019 | 26.68571 | 22132 ft | 425 kts | 141° |
| 2026-04-30 11:33 | 37.51775 | 26.71001 | 21601 ft | 421 kts | 141° |
| 2026-04-30 11:33 | 37.49578 | 26.73376 | 21075 ft | 417 kts | 141° |
| 2026-04-30 11:34 | 37.47396 | 26.75733 | 20545 ft | 414 kts | 141° |
| 2026-04-30 11:34 | 37.45211 | 26.78090 | 20018 ft | 411 kts | 141° |
| 2026-04-30 11:34 | 37.43038 | 26.80430 | 19475 ft | 408 kts | 141° |
| 2026-04-30 11:34 | 37.40711 | 26.82381 | 18896 ft | 401 kts | 159° |
| 2026-04-30 11:35 | 37.38058 | 26.83155 | 18357 ft | 391 kts | 180° |
| 2026-04-30 11:35 | 37.35378 | 26.82794 | 17827 ft | 383 kts | 195° |
| 2026-04-30 11:35 | 37.32793 | 26.82070 | 17298 ft | 381 kts | 195° |
| 2026-04-30 11:35 | 37.30211 | 26.81338 | 16767 ft | 379 kts | 195° |
| 2026-04-30 11:36 | 37.27658 | 26.80627 | 16238 ft | 378 kts | 195° |
| 2026-04-30 11:36 | 37.25079 | 26.79924 | 15713 ft | 376 kts | 194° |
| 2026-04-30 11:36 | 37.22540 | 26.79245 | 15191 ft | 374 kts | 194° |
| 2026-04-30 11:36 | 37.19987 | 26.78566 | 14660 ft | 373 kts | 194° |
| 2026-04-30 11:37 | 37.17443 | 26.77893 | 14132 ft | 371 kts | 194° |
| 2026-04-30 11:37 | 37.14950 | 26.77235 | 13619 ft | 369 kts | 194° |
| 2026-04-30 11:37 | 37.12435 | 26.76573 | 13107 ft | 366 kts | 194° |
| 2026-04-30 11:37 | 37.09968 | 26.75925 | 12598 ft | 364 kts | 194° |
| 2026-04-30 11:38 | 37.07484 | 26.75272 | 12080 ft | 361 kts | 193° |
| 2026-04-30 11:38 | 37.05040 | 26.74629 | 11569 ft | 357 kts | 193° |
| 2026-04-30 11:38 | 37.02625 | 26.73992 | 11148 ft | 351 kts | 193° |
| 2026-04-30 11:38 | 37.00288 | 26.73391 | 10912 ft | 338 kts | 191° |
| 2026-04-30 11:39 | 36.97966 | 26.73444 | 10681 ft | 328 kts | 166° |
| 2026-04-30 11:39 | 36.96038 | 26.74773 | 10470 ft | 313 kts | 137° |
| 2026-04-30 11:39 | 36.94782 | 26.76906 | 10286 ft | 298 kts | 119° |
| 2026-04-30 11:39 | 36.93782 | 26.79115 | 10137 ft | 287 kts | 118° |
| 2026-04-30 11:40 | 36.92838 | 26.81248 | 9961 ft | 282 kts | 118° |
| 2026-04-30 11:40 | 36.91869 | 26.83379 | 9575 ft | 283 kts | 120° |
| 2026-04-30 11:40 | 36.90862 | 26.85502 | 9197 ft | 281 kts | 121° |
| 2026-04-30 11:40 | 36.89850 | 26.87580 | 8836 ft | 280 kts | 121° |
| 2026-04-30 11:41 | 36.88839 | 26.89630 | 8503 ft | 278 kts | 121° |
| 2026-04-30 11:41 | 36.87816 | 26.91689 | 8183 ft | 277 kts | 121° |
| 2026-04-30 11:41 | 36.86810 | 26.93705 | 7789 ft | 275 kts | 121° |
| 2026-04-30 11:41 | 36.85802 | 26.95716 | 7468 ft | 273 kts | 121° |
| 2026-04-30 11:42 | 36.84792 | 26.97731 | 7142 ft | 271 kts | 121° |
| 2026-04-30 11:42 | 36.83805 | 26.99697 | 6812 ft | 270 kts | 121° |
| 2026-04-30 11:42 | 36.82808 | 27.01680 | 6473 ft | 269 kts | 121° |
| 2026-04-30 11:42 | 36.81826 | 27.03633 | 6134 ft | 268 kts | 120° |
| 2026-04-30 11:43 | 36.80832 | 27.05612 | 5790 ft | 267 kts | 121° |
| 2026-04-30 11:43 | 36.79847 | 27.07552 | 5446 ft | 266 kts | 123° |
| 2026-04-30 11:43 | 36.78529 | 27.09179 | 5067 ft | 268 kts | 149° |
| 2026-04-30 11:43 | 36.76810 | 27.09984 | 4729 ft | 267 kts | 165° |
| 2026-04-30 11:44 | 36.75010 | 27.10534 | 4383 ft | 267 kts | 166° |
| 2026-04-30 11:44 | 36.73194 | 27.11076 | 4050 ft | 266 kts | 166° |
| 2026-04-30 11:44 | 36.71440 | 27.11617 | 3986 ft | 249 kts | 165° |
| 2026-04-30 11:44 | 36.69829 | 27.12129 | 3965 ft | 234 kts | 165° |
| 2026-04-30 11:45 | 36.68290 | 27.12626 | 3896 ft | 221 kts | 164° |
| 2026-04-30 11:45 | 36.66848 | 27.13218 | 3764 ft | 212 kts | 148° |
| 2026-04-30 11:45 | 36.65964 | 27.14546 | 3467 ft | 199 kts | 107° |
| 2026-04-30 11:45 | 36.65869 | 27.16162 | 3300 ft | 181 kts | 76° |
| 2026-04-30 11:46 | 36.66364 | 27.17521 | 3148 ft | 163 kts | 49° |
| 2026-04-30 11:46 | 36.67175 | 27.18363 | 3042 ft | 147 kts | 25° |
| 2026-04-30 11:46 | 36.68136 | 27.18710 | 2921 ft | 145 kts | 3° |
| 2026-04-30 11:46 | 36.69144 | 27.18555 | 2753 ft | 146 kts | 340° |
| 2026-04-30 11:47 | 36.70029 | 27.17988 | 2469 ft | 144 kts | 325° |
| 2026-04-30 11:47 | 36.70822 | 27.17237 | 2260 ft | 143 kts | 322° |
| 2026-04-30 11:47 | 36.71603 | 27.16458 | 2061 ft | 143 kts | 321° |
| 2026-04-30 11:47 | 36.72386 | 27.15686 | 1866 ft | 143 kts | 321° |
| 2026-04-30 11:48 | 36.73165 | 27.14930 | 1677 ft | 142 kts | 322° |
| 2026-04-30 11:48 | 36.73943 | 27.14182 | 1491 ft | 142 kts | 322° |
| 2026-04-30 11:48 | 36.74731 | 27.13429 | 1302 ft | 141 kts | 322° |
| 2026-04-30 11:48 | 36.75508 | 27.12688 | 1117 ft | 141 kts | 322° |
| 2026-04-30 11:49 | 36.76287 | 27.11947 | 932 ft | 141 kts | 322° |
| 2026-04-30 11:49 | 36.77064 | 27.11198 | 756 ft | 140 kts | 320° |
| 2026-04-30 11:49 | 36.77824 | 27.10435 | 594 ft | 140 kts | 321° |
| 2026-04-30 11:49 | 36.78626 | 27.09761 | 409 ft | 138 kts | 326° |
| 2026-04-30 11:50 | 36.79408 | 27.09146 | 401 ft | 112 kts | 330° |
| 2026-04-30 11:50 | 36.79845 | 27.08804 | 411 ft | 56 kts | 328° |
| 2026-04-30 11:50 | 36.80143 | 27.08576 | 413 ft | 36 kts | 326° |
| 2026-04-30 11:50 | 36.80289 | 27.08468 | 412 ft | 21 kts | 330° |
| 2026-04-30 11:51 | 36.80355 | 27.08501 | 412 ft | 13 kts | 107° |
| 2026-04-30 11:51 | 36.80338 | 27.08611 | 416 ft | 11 kts | 99° |
| 2026-04-30 11:51 | 36.80304 | 27.08691 | 418 ft | 10 kts | 144° |
| 2026-04-30 11:51 | 36.80236 | 27.08746 | 418 ft | 13 kts | 148° |
| 2026-04-30 11:52 | 36.80149 | 27.08814 | 416 ft | 9 kts | 146° |
| 2026-04-30 11:52 | 36.80100 | 27.08859 | 415 ft | 9 kts | 121° |
| 2026-04-30 11:52 | 36.80094 | 27.08917 | 417 ft | 2 kts | 89° |
| 2026-04-30 11:52 | 36.80094 | 27.08926 | 418 ft | 3 kts | 88° |
| 2026-04-30 11:53 | 36.80094 | 27.08944 | 419 ft | 3 kts | 88° |
| 2026-04-30 11:53 | 36.80094 | 27.08952 | 420 ft | 0 kts | 88° |
| 2026-04-30 11:53 | 36.80094 | 27.08956 | 420 ft | 0 kts | 88° |